createdAt,value
2018-02-17T00:00:33.532Z,-1.94
2018-02-17T00:01:33.551Z,-1.96
2018-02-17T00:02:33.544Z,-1.97
2018-02-17T00:03:33.540Z,-1.98
2018-02-17T00:04:33.548Z,-1.98
2018-02-17T00:05:33.545Z,-1.98
2018-02-17T00:06:33.558Z,-2.01
2018-02-17T00:07:33.559Z,-2.03
2018-02-17T00:08:33.554Z,-2.01
2018-02-17T00:09:33.551Z,-2.03
2018-02-17T00:10:33.557Z,-2.03
2018-02-17T00:11:33.567Z,-2.03
2018-02-17T00:12:33.563Z,-2.03
2018-02-17T00:13:33.577Z,-2.04
2018-02-17T00:14:33.585Z,-2.04
2018-02-17T00:15:33.583Z,-2.04
2018-02-17T00:16:33.591Z,-2.04
2018-02-17T00:17:33.577Z,-2.04
2018-02-17T00:18:33.597Z,-2.04
2018-02-17T00:19:33.590Z,-2.04
2018-02-17T00:20:33.586Z,-2.04
2018-02-17T00:21:33.594Z,-2.04
2018-02-17T00:22:33.590Z,-2.03
2018-02-17T00:23:33.597Z,-2.04
2018-02-17T00:24:33.622Z,-2.01
2018-02-17T00:25:33.607Z,-2.03
2018-02-17T00:26:33.612Z,-2.04
2018-02-17T00:27:33.612Z,-2.03
2018-02-17T00:28:33.618Z,-2.01
2018-02-17T00:29:33.626Z,-2.01
2018-02-17T00:30:33.631Z,-2.01
2018-02-17T00:31:33.615Z,-2.01
2018-02-17T00:32:33.623Z,-2.01
2018-02-17T00:33:33.620Z,-2.01
2018-02-17T00:34:33.628Z,-2.01
2018-02-17T00:35:33.629Z,-2.01
2018-02-17T00:36:34.653Z,-2.01
2018-02-17T00:37:33.643Z,-2.00
2018-02-17T00:38:33.640Z,-2.00
2018-02-17T00:39:33.637Z,-2.00
2018-02-17T00:40:33.657Z,-2.01
2018-02-17T00:41:33.642Z,-2.00
2018-02-17T00:42:33.657Z,-2.00
2018-02-17T00:43:33.656Z,-2.00
2018-02-17T00:44:33.657Z,-2.00
2018-02-17T00:45:33.671Z,-1.98
2018-02-17T00:46:33.668Z,-1.98
2018-02-17T00:47:33.672Z,-1.97
2018-02-17T00:48:33.679Z,-1.97
2018-02-17T00:49:33.671Z,-1.97
2018-02-17T00:50:33.677Z,-1.97
2018-02-17T00:51:33.683Z,-1.96
2018-02-17T00:52:34.681Z,-1.94
2018-02-17T00:53:33.686Z,-1.93
2018-02-17T00:54:33.695Z,-1.93
2018-02-17T00:55:33.691Z,-1.91
2018-02-17T00:56:33.697Z,-1.91
2018-02-17T00:57:33.686Z,-1.91
2018-02-17T00:58:33.694Z,-1.90
2018-02-17T00:59:33.694Z,-1.88
2018-02-17T01:00:33.701Z,-1.88
2018-02-17T01:01:33.703Z,-1.86
2018-02-17T01:02:33.710Z,-1.86
2018-02-17T01:03:33.707Z,-1.85
2018-02-17T01:04:33.714Z,-1.83
2018-02-17T01:05:33.711Z,-1.83
2018-02-17T01:06:33.729Z,-1.82
2018-02-17T01:07:33.732Z,-1.80
2018-02-17T01:08:33.717Z,-1.78
2018-02-17T01:09:33.721Z,-1.78
2018-02-17T01:10:33.728Z,-1.76
2018-02-17T01:11:33.730Z,-1.76
2018-02-17T01:12:33.737Z,-1.73
2018-02-17T01:13:33.734Z,-1.73
2018-02-17T01:14:33.730Z,-1.72
2018-02-17T01:15:33.757Z,-1.73
2018-02-17T01:16:33.748Z,-1.75
2018-02-17T01:17:33.738Z,-1.76
2018-02-17T01:18:33.765Z,-1.76
2018-02-17T01:19:33.746Z,-1.78
2018-02-17T01:20:33.752Z,-1.79
2018-02-17T01:21:33.749Z,-1.80
2018-02-17T01:22:33.759Z,-1.82
2018-02-17T01:23:33.754Z,-1.82
2018-02-17T01:24:33.760Z,-1.83
2018-02-17T01:25:33.759Z,-1.86
2018-02-17T01:26:33.768Z,-1.86
2018-02-17T01:27:33.772Z,-1.88
2018-02-17T01:28:33.783Z,-1.91
2018-02-17T01:29:33.812Z,-1.90
2018-02-17T01:30:33.786Z,-1.93
2018-02-17T01:31:33.778Z,-1.93
2018-02-17T01:32:33.806Z,-1.93
2018-02-17T01:33:33.783Z,-1.93
2018-02-17T01:34:33.788Z,-1.94
2018-02-17T01:35:33.789Z,-1.96
2018-02-17T01:36:33.791Z,-1.96
2018-02-17T01:37:33.787Z,-1.96
2018-02-17T01:38:33.795Z,-1.96
2018-02-17T01:39:33.798Z,-1.96
2018-02-17T01:40:33.802Z,-1.96
2018-02-17T01:41:33.798Z,-1.97
2018-02-17T01:42:34.811Z,-1.96
2018-02-17T01:43:33.801Z,-1.96
2018-02-17T01:44:33.804Z,-1.96
2018-02-17T01:45:33.810Z,-1.97
2018-02-17T01:46:33.816Z,-1.98
2018-02-17T01:47:33.808Z,-1.98
2018-02-17T01:48:33.831Z,-1.97
2018-02-17T01:49:33.812Z,-1.97
2018-02-17T01:50:33.819Z,-1.97
2018-02-17T01:51:33.820Z,-1.97
2018-02-17T01:52:33.830Z,-1.97
2018-02-17T01:53:33.836Z,-1.97
2018-02-17T01:54:33.835Z,-1.98
2018-02-17T01:55:33.826Z,-1.97
2018-02-17T01:56:33.834Z,-1.98
2018-02-17T01:57:33.830Z,-1.97
2018-02-17T01:58:33.836Z,-1.98
2018-02-17T01:59:33.842Z,-1.98
2018-02-17T02:00:33.846Z,-1.98
2018-02-17T02:01:33.837Z,-1.98
2018-02-17T02:02:33.858Z,-2.00
2018-02-17T02:03:33.842Z,-2.00
2018-02-17T02:04:34.843Z,-2.00
2018-02-17T02:05:33.849Z,-2.00
2018-02-17T02:06:33.860Z,-1.98
2018-02-17T02:07:33.848Z,-1.98
2018-02-17T02:08:34.856Z,-1.98
2018-02-17T02:09:33.852Z,-1.97
2018-02-17T02:10:33.859Z,-2.00
2018-02-17T02:11:33.859Z,-2.01
2018-02-17T02:12:33.863Z,-2.01
2018-02-17T02:13:33.859Z,-2.03
2018-02-17T02:14:33.877Z,-2.03
2018-02-17T02:15:33.874Z,-2.06
2018-02-17T02:16:33.869Z,-2.09
2018-02-17T02:17:33.870Z,-2.08
2018-02-17T02:18:33.875Z,-2.11
2018-02-17T02:19:33.888Z,-2.11
2018-02-17T02:20:33.879Z,-2.11
2018-02-17T02:21:33.882Z,-2.12
2018-02-17T02:22:33.889Z,-2.12
2018-02-17T02:23:33.930Z,-2.12
2018-02-17T02:24:33.900Z,-2.14
2018-02-17T02:25:33.899Z,-2.14
2018-02-17T02:26:33.889Z,-2.15
2018-02-17T02:27:33.889Z,-2.14
2018-02-17T02:28:33.895Z,-2.15
2018-02-17T02:29:33.895Z,-2.16
2018-02-17T02:30:33.916Z,-2.15
2018-02-17T02:31:33.901Z,-2.15
2018-02-17T02:32:33.909Z,-2.16
2018-02-17T02:33:33.901Z,-2.16
2018-02-17T02:34:33.906Z,-2.16
2018-02-17T02:35:33.907Z,-2.15
2018-02-17T02:36:33.917Z,-2.16
2018-02-17T02:37:33.911Z,-2.15
2018-02-17T02:38:33.913Z,-2.16
2018-02-17T02:39:33.912Z,-2.15
2018-02-17T02:40:33.923Z,-2.15
2018-02-17T02:41:33.910Z,-2.15
2018-02-17T02:42:33.922Z,-2.15
2018-02-17T02:43:33.922Z,-2.15
2018-02-17T02:44:33.930Z,-2.15
2018-02-17T02:45:33.924Z,-2.16
2018-02-17T02:46:33.928Z,-2.16
2018-02-17T02:47:33.926Z,-2.16
2018-02-17T02:48:33.935Z,-2.15
2018-02-17T02:49:33.936Z,-2.16
2018-02-17T02:50:33.965Z,-2.16
2018-02-17T02:51:33.932Z,-2.16
2018-02-17T02:52:33.943Z,-2.18
2018-02-17T02:53:33.989Z,-2.16
2018-02-17T02:54:33.953Z,-2.15
2018-02-17T02:55:33.939Z,-2.16
2018-02-17T02:56:33.952Z,-2.15
2018-02-17T02:57:33.940Z,-2.15
2018-02-17T02:58:33.954Z,-2.15
2018-02-17T02:59:33.951Z,-2.15
2018-02-17T03:00:33.950Z,-2.16
2018-02-17T03:01:33.956Z,-2.16
2018-02-17T03:02:33.960Z,-2.16
2018-02-17T03:03:33.954Z,-2.19
2018-02-17T03:04:33.971Z,-2.19
2018-02-17T03:05:33.954Z,-2.19
2018-02-17T03:06:34.002Z,-2.22
2018-02-17T03:07:33.964Z,-2.22
2018-02-17T03:08:33.966Z,-2.24
2018-02-17T03:09:33.975Z,-2.26
2018-02-17T03:10:33.991Z,-2.27
2018-02-17T03:11:33.966Z,-2.27
2018-02-17T03:12:33.981Z,-2.27
2018-02-17T03:13:33.975Z,-2.29
2018-02-17T03:14:33.980Z,-2.30
2018-02-17T03:15:33.977Z,-2.30
2018-02-17T03:16:33.983Z,-2.30
2018-02-17T03:17:34.028Z,-2.33
2018-02-17T03:18:33.977Z,-2.34
2018-02-17T03:19:33.986Z,-2.30
2018-02-17T03:20:34.007Z,-2.33
2018-02-17T03:21:33.996Z,-2.30
2018-02-17T03:22:33.996Z,-2.29
2018-02-17T03:23:33.991Z,-2.30
2018-02-17T03:24:34.006Z,-2.33
2018-02-17T03:25:33.999Z,-2.33
2018-02-17T03:26:33.993Z,-2.30
2018-02-17T03:27:33.993Z,-2.30
2018-02-17T03:28:34.006Z,-2.30
2018-02-17T03:29:34.001Z,-2.29
2018-02-17T03:30:34.012Z,-2.30
2018-02-17T03:31:34.001Z,-2.29
2018-02-17T03:32:34.004Z,-2.29
2018-02-17T03:33:34.003Z,-2.29
2018-02-17T03:34:35.011Z,-2.33
2018-02-17T03:35:34.009Z,-2.34
2018-02-17T03:36:34.008Z,-2.35
2018-02-17T03:37:34.006Z,-2.35
2018-02-17T03:38:34.017Z,-2.38
2018-02-17T03:39:34.021Z,-2.37
2018-02-17T03:40:34.022Z,-2.40
2018-02-17T03:41:34.016Z,-2.40
2018-02-17T03:42:34.028Z,-2.45
2018-02-17T03:43:34.026Z,-2.45
2018-02-17T03:44:34.034Z,-2.45
2018-02-17T03:45:34.024Z,-2.48
2018-02-17T03:46:34.042Z,-2.48
2018-02-17T03:47:34.027Z,-2.48
2018-02-17T03:48:34.035Z,-2.48
2018-02-17T03:49:34.032Z,-2.49
2018-02-17T03:50:34.040Z,-2.51
2018-02-17T03:51:34.031Z,-2.51
2018-02-17T03:52:34.034Z,-2.51
2018-02-17T03:53:34.031Z,-2.51
2018-02-17T03:54:34.041Z,-2.52
2018-02-17T03:55:34.035Z,-2.54
2018-02-17T03:56:34.041Z,-2.52
2018-02-17T03:57:34.034Z,-2.52
2018-02-17T03:58:34.062Z,-2.52
2018-02-17T03:59:34.045Z,-2.52
2018-02-17T04:00:34.049Z,-2.52
2018-02-17T04:01:34.793Z,-2.54
2018-02-17T04:02:34.045Z,-2.52
2018-02-17T04:03:34.063Z,-2.52
2018-02-17T04:04:34.056Z,-2.52
2018-02-17T04:05:34.052Z,-2.54
2018-02-17T04:06:34.056Z,-2.52
2018-02-17T04:07:34.051Z,-2.52
2018-02-17T04:08:34.058Z,-2.51
2018-02-17T04:09:34.077Z,-2.51
2018-02-17T04:10:34.072Z,-2.49
2018-02-17T04:11:34.067Z,-2.46
2018-02-17T04:12:34.061Z,-2.45
2018-02-17T04:13:34.059Z,-2.41
2018-02-17T04:14:34.068Z,-2.40
2018-02-17T04:15:34.077Z,-2.41
2018-02-17T04:16:34.070Z,-2.40
2018-02-17T04:17:34.072Z,-2.41
2018-02-17T04:18:34.076Z,-2.43
2018-02-17T04:19:34.066Z,-2.41
2018-02-17T04:20:34.073Z,-2.43
2018-02-17T04:21:34.067Z,-2.45
2018-02-17T04:22:34.076Z,-2.43
2018-02-17T04:23:34.078Z,-2.43
2018-02-17T04:24:34.083Z,-2.45
2018-02-17T04:25:34.087Z,-2.41
2018-02-17T04:26:34.084Z,-2.41
2018-02-17T04:27:34.078Z,-2.43
2018-02-17T04:28:34.077Z,-2.41
2018-02-17T04:29:34.077Z,-2.40
2018-02-17T04:30:34.080Z,-2.40
2018-02-17T04:31:34.083Z,-2.38
2018-02-17T04:32:34.112Z,-2.38
2018-02-17T04:33:34.088Z,-2.40
2018-02-17T04:34:34.090Z,-2.40
2018-02-17T04:35:34.095Z,-2.41
2018-02-17T04:36:34.096Z,-2.41
2018-02-17T04:37:34.090Z,-2.40
2018-02-17T04:38:34.102Z,-2.41
2018-02-17T04:39:34.093Z,-2.43
2018-02-17T04:40:34.101Z,-2.43
2018-02-17T04:41:34.095Z,-2.43
2018-02-17T04:42:34.105Z,-2.43
2018-02-17T04:43:34.098Z,-2.45
2018-02-17T04:44:34.110Z,-2.46
2018-02-17T04:45:34.105Z,-2.46
2018-02-17T04:46:34.112Z,-2.45
2018-02-17T04:47:34.104Z,-2.46
2018-02-17T04:48:34.108Z,-2.46
2018-02-17T04:49:34.106Z,-2.46
2018-02-17T04:50:34.109Z,-2.46
2018-02-17T04:51:34.121Z,-2.45
2018-02-17T04:52:34.116Z,-2.45
2018-02-17T04:53:34.119Z,-2.45
2018-02-17T04:54:34.117Z,-2.46
2018-02-17T04:55:34.113Z,-2.45
2018-02-17T04:56:34.121Z,-2.45
2018-02-17T04:57:34.115Z,-2.46
2018-02-17T04:58:34.120Z,-2.46
2018-02-17T04:59:34.119Z,-2.45
2018-02-17T05:00:34.122Z,-2.45
2018-02-17T05:01:34.120Z,-2.45
2018-02-17T05:02:34.128Z,-2.45
2018-02-17T05:03:34.119Z,-2.46
2018-02-17T05:04:34.132Z,-2.46
2018-02-17T05:05:34.123Z,-2.46
2018-02-17T05:06:34.136Z,-2.46
2018-02-17T05:07:34.142Z,-2.45
2018-02-17T05:08:34.138Z,-2.43
2018-02-17T05:09:34.128Z,-2.43
2018-02-17T05:10:34.132Z,-2.41
2018-02-17T05:11:34.136Z,-2.40
2018-02-17T05:12:34.135Z,-2.40
2018-02-17T05:13:34.137Z,-2.37
2018-02-17T05:14:34.135Z,-2.35
2018-02-17T05:15:34.141Z,-2.34
2018-02-17T05:16:34.142Z,-2.30
2018-02-17T05:17:34.132Z,-2.29
2018-02-17T05:18:34.140Z,-2.29
2018-02-17T05:19:34.142Z,-2.29
2018-02-17T05:20:34.142Z,-2.29
2018-02-17T05:21:34.137Z,-2.30
2018-02-17T05:22:34.156Z,-2.29
2018-02-17T05:23:34.152Z,-2.29
2018-02-17T05:24:34.162Z,-2.30
2018-02-17T05:25:34.156Z,-2.30
2018-02-17T05:26:34.150Z,-2.29
2018-02-17T05:27:34.153Z,-2.30
2018-02-17T05:28:34.157Z,-2.30
2018-02-17T05:29:34.162Z,-2.29
2018-02-17T05:30:34.150Z,-2.29
2018-02-17T05:31:34.152Z,-2.27
2018-02-17T05:32:34.165Z,-2.27
2018-02-17T05:33:34.156Z,-2.26
2018-02-17T05:34:34.168Z,-2.26
2018-02-17T05:35:34.162Z,-2.26
2018-02-17T05:36:34.160Z,-2.26
2018-02-17T05:37:34.165Z,-2.24
2018-02-17T05:38:34.160Z,-2.22
2018-02-17T05:39:34.167Z,-2.21
2018-02-17T05:40:34.160Z,-2.19
2018-02-17T05:41:34.161Z,-2.21
2018-02-17T05:42:34.173Z,-2.18
2018-02-17T05:43:34.170Z,-2.19
2018-02-17T05:44:34.174Z,-2.21
2018-02-17T05:45:34.164Z,-2.19
2018-02-17T05:46:34.178Z,-2.19
2018-02-17T05:47:34.172Z,-2.16
2018-02-17T05:48:34.173Z,-2.16
2018-02-17T05:49:34.186Z,-2.18
2018-02-17T05:50:34.175Z,-2.15
2018-02-17T05:51:34.180Z,-2.15
2018-02-17T05:52:34.184Z,-2.15
2018-02-17T05:53:34.175Z,-2.15
2018-02-17T05:54:34.198Z,-2.15
2018-02-17T05:55:34.177Z,-2.16
2018-02-17T05:56:34.182Z,-2.16
2018-02-17T05:57:34.179Z,-2.16
2018-02-17T05:58:34.198Z,-2.16
2018-02-17T05:59:34.182Z,-2.18
2018-02-17T06:00:34.183Z,-2.18
2018-02-17T06:01:34.192Z,-2.18
2018-02-17T06:02:34.191Z,-2.18
2018-02-17T06:03:34.178Z,-2.18
2018-02-17T06:04:34.203Z,-2.18
2018-02-17T06:05:34.206Z,-2.16
2018-02-17T06:06:34.194Z,-2.16
2018-02-17T06:07:34.202Z,-2.15
2018-02-17T06:08:34.238Z,-2.15
2018-02-17T06:09:34.190Z,-2.14
2018-02-17T06:10:34.196Z,-2.14
2018-02-17T06:11:34.192Z,-2.15
2018-02-17T06:12:34.199Z,-2.14
2018-02-17T06:13:34.201Z,-2.14
2018-02-17T06:14:34.205Z,-2.14
2018-02-17T06:15:34.207Z,-2.15
2018-02-17T06:16:34.208Z,-2.14
2018-02-17T06:17:34.199Z,-2.15
2018-02-17T06:18:34.203Z,-2.15
2018-02-17T06:19:34.206Z,-2.16
2018-02-17T06:20:34.227Z,-2.16
2018-02-17T06:21:34.262Z,-2.18
2018-02-17T06:22:34.232Z,-2.18
2018-02-17T06:23:34.203Z,-2.18
2018-02-17T06:24:34.206Z,-2.18
2018-02-17T06:25:34.207Z,-2.18
2018-02-17T06:26:34.207Z,-2.19
2018-02-17T06:27:34.208Z,-2.19
2018-02-17T06:28:34.227Z,-2.19
2018-02-17T06:29:34.215Z,-2.21
2018-02-17T06:30:34.215Z,-2.18
2018-02-17T06:31:34.214Z,-2.19
2018-02-17T06:32:34.228Z,-2.19
2018-02-17T06:33:34.370Z,-2.19
2018-02-17T06:34:34.240Z,-2.19
2018-02-17T06:35:34.218Z,-2.19
2018-02-17T06:36:34.220Z,-2.19
2018-02-17T06:37:34.218Z,-2.19
2018-02-17T06:38:34.253Z,-2.21
2018-02-17T06:39:34.230Z,-2.21
2018-02-17T06:40:34.223Z,-2.21
2018-02-17T06:41:34.234Z,-2.21
2018-02-17T06:42:34.222Z,-2.19
2018-02-17T06:43:34.224Z,-2.19
2018-02-17T06:44:34.230Z,-2.18
2018-02-17T06:45:34.226Z,-2.19
2018-02-17T06:46:34.234Z,-2.18
2018-02-17T06:47:34.231Z,-2.18
2018-02-17T06:48:34.242Z,-2.18
2018-02-17T06:49:34.235Z,-2.18
2018-02-17T06:50:34.234Z,-2.16
2018-02-17T06:51:34.231Z,-2.16
2018-02-17T06:52:34.241Z,-2.14
2018-02-17T06:53:34.262Z,-2.15
2018-02-17T06:54:34.244Z,-2.14
2018-02-17T06:55:34.233Z,-2.14
2018-02-17T06:56:34.242Z,-2.14
2018-02-17T06:57:34.262Z,-2.12
2018-02-17T06:58:34.240Z,-2.12
2018-02-17T06:59:34.342Z,-2.11
2018-02-17T07:00:34.365Z,-2.09
2018-02-17T07:01:34.323Z,-2.09
2018-02-17T07:02:34.242Z,-2.08
2018-02-17T07:03:34.364Z,-2.08
2018-02-17T07:04:34.260Z,-2.06
2018-02-17T07:05:34.362Z,-2.04
2018-02-17T07:06:34.405Z,-2.03
2018-02-17T07:07:34.314Z,-2.03
2018-02-17T07:08:34.300Z,-2.01
2018-02-17T07:09:34.288Z,-2.00
2018-02-17T07:10:34.259Z,-2.00
2018-02-17T07:11:35.322Z,-2.00
2018-02-17T07:12:34.265Z,-1.98
2018-02-17T07:13:34.285Z,-1.97
2018-02-17T07:14:34.258Z,-1.98
2018-02-17T07:15:34.344Z,-1.97
2018-02-17T07:16:34.266Z,-1.96
2018-02-17T07:17:34.380Z,-1.94
2018-02-17T07:18:34.325Z,-1.93
2018-02-17T07:19:34.371Z,-1.91
2018-02-17T07:20:34.264Z,-1.90
2018-02-17T07:21:34.369Z,-1.86
2018-02-17T07:22:34.262Z,-1.82
2018-02-17T07:23:34.275Z,-1.79
2018-02-17T07:24:34.290Z,-1.78
2018-02-17T07:25:34.402Z,-1.76
2018-02-17T07:26:34.345Z,-1.73
2018-02-17T07:27:34.414Z,-1.72
2018-02-17T07:28:34.295Z,-1.70
2018-02-17T07:29:34.424Z,-1.67
2018-02-17T07:30:34.270Z,-1.65
2018-02-17T07:31:34.362Z,-1.62
2018-02-17T07:32:34.273Z,-1.62
2018-02-17T07:33:35.397Z,-1.59
2018-02-17T07:34:34.306Z,-1.57
2018-02-17T07:35:34.453Z,-1.54
2018-02-17T07:36:34.286Z,-1.52
2018-02-17T07:37:34.396Z,-1.49
2018-02-17T07:38:34.275Z,-1.47
2018-02-17T07:39:34.350Z,-1.44
2018-02-17T07:40:34.290Z,-1.43
2018-02-17T07:41:34.322Z,-1.40
2018-02-17T07:42:34.283Z,-1.39
2018-02-17T07:43:34.320Z,-1.37
2018-02-17T07:44:34.286Z,-1.33
2018-02-17T07:45:34.332Z,-1.31
2018-02-17T07:46:34.283Z,-1.28
2018-02-17T07:47:35.365Z,-1.26
2018-02-17T07:48:34.286Z,-1.22
2018-02-17T07:49:34.363Z,-1.22
2018-02-17T07:50:34.298Z,-1.19
2018-02-17T07:51:34.530Z,-1.18
2018-02-17T07:52:34.292Z,-1.15
2018-02-17T07:53:34.383Z,-1.11
2018-02-17T07:54:34.293Z,-1.10
2018-02-17T07:55:34.408Z,-1.07
2018-02-17T07:56:34.311Z,-1.07
2018-02-17T07:57:34.308Z,-1.03
2018-02-17T07:58:34.290Z,-1.03
2018-02-17T07:59:34.319Z,-1.00
2018-02-17T08:00:34.299Z,-0.97
2018-02-17T08:01:34.332Z,-0.97
2018-02-17T08:02:34.324Z,-0.94
2018-02-17T08:03:34.299Z,-0.90
2018-02-17T08:04:34.305Z,-0.89
2018-02-17T08:05:34.312Z,-0.86
2018-02-17T08:06:34.302Z,-0.85
2018-02-17T08:07:34.376Z,-0.84
2018-02-17T08:08:34.311Z,-0.79
2018-02-17T08:09:34.393Z,-0.79
2018-02-17T08:10:34.330Z,-0.76
2018-02-17T08:11:34.398Z,-0.73
2018-02-17T08:12:34.304Z,-0.71
2018-02-17T08:13:34.409Z,-0.70
2018-02-17T08:14:34.309Z,-0.67
2018-02-17T08:15:34.423Z,-0.67
2018-02-17T08:16:35.286Z,-0.63
2018-02-17T08:17:34.335Z,-0.61
2018-02-17T08:18:34.319Z,-0.58
2018-02-17T08:19:34.351Z,-0.57
2018-02-17T08:20:34.318Z,-0.53
2018-02-17T08:21:34.361Z,-0.49
2018-02-17T08:22:34.324Z,-0.47
2018-02-17T08:23:34.373Z,-0.45
2018-02-17T08:24:34.339Z,-0.42
2018-02-17T08:25:34.335Z,-0.39
2018-02-17T08:26:34.355Z,-0.35
2018-02-17T08:27:34.324Z,-0.34
2018-02-17T08:28:34.326Z,-0.31
2018-02-17T08:29:34.320Z,-0.29
2018-02-17T08:30:34.324Z,-0.28
2018-02-17T08:31:34.338Z,-0.24
2018-02-17T08:32:34.485Z,-0.22
2018-02-17T08:33:34.336Z,-0.21
2018-02-17T08:34:34.330Z,-0.20
2018-02-17T08:35:34.330Z,-0.20
2018-02-17T08:36:34.332Z,-0.14
2018-02-17T08:37:35.442Z,-0.14
2018-02-17T08:38:34.352Z,-0.10
2018-02-17T08:39:34.427Z,-0.09
2018-02-17T08:40:34.336Z,-0.06
2018-02-17T08:41:34.440Z,-0.07
2018-02-17T08:42:34.344Z,-0.04
2018-02-17T08:43:34.404Z,-0.03
2018-02-17T08:44:34.337Z,-0.01
2018-02-17T08:45:34.417Z,0.00
2018-02-17T08:46:34.344Z,0.02
2018-02-17T08:47:34.425Z,0.04
2018-02-17T08:48:34.339Z,0.07
2018-02-17T08:49:34.437Z,0.05
2018-02-17T08:50:34.348Z,0.08
2018-02-17T08:51:34.454Z,0.09
2018-02-17T08:52:34.349Z,0.12
2018-02-17T08:53:34.369Z,0.15
2018-02-17T08:54:34.351Z,0.18
2018-02-17T08:55:34.375Z,0.22
2018-02-17T08:56:34.353Z,0.23
2018-02-17T08:57:34.398Z,0.27
2018-02-17T08:58:34.355Z,0.29
2018-02-17T08:59:34.400Z,0.32
2018-02-17T09:00:34.356Z,0.33
2018-02-17T09:01:34.419Z,0.36
2018-02-17T09:02:34.353Z,0.36
2018-02-17T09:03:35.450Z,0.40
2018-02-17T09:04:34.348Z,0.40
2018-02-17T09:05:34.456Z,0.44
2018-02-17T09:06:34.368Z,0.45
2018-02-17T09:07:34.452Z,0.45
2018-02-17T09:08:34.356Z,0.48
2018-02-17T09:09:34.480Z,0.50
2018-02-17T09:10:34.357Z,0.53
2018-02-17T09:11:34.386Z,0.55
2018-02-17T09:12:34.359Z,0.56
2018-02-17T09:13:34.410Z,0.59
2018-02-17T09:14:34.361Z,0.60
2018-02-17T09:15:34.413Z,0.62
2018-02-17T09:16:34.365Z,0.66
2018-02-17T09:17:34.426Z,0.66
2018-02-17T09:18:34.371Z,0.67
2018-02-17T09:19:34.432Z,0.70
2018-02-17T09:20:34.370Z,0.70
2018-02-17T09:21:34.445Z,0.70
2018-02-17T09:22:34.369Z,0.73
2018-02-17T09:23:34.449Z,0.76
2018-02-17T09:24:34.390Z,0.78
2018-02-17T09:25:34.468Z,0.81
2018-02-17T09:26:34.374Z,0.82
2018-02-17T09:27:34.490Z,0.84
2018-02-17T09:28:34.376Z,0.88
2018-02-17T09:29:34.397Z,0.91
2018-02-17T09:30:34.387Z,0.94
2018-02-17T09:31:34.420Z,0.96
2018-02-17T09:32:34.377Z,1.00
2018-02-17T09:33:34.413Z,1.02
2018-02-17T09:34:34.385Z,1.06
2018-02-17T09:35:34.441Z,1.09
2018-02-17T09:36:34.387Z,1.13
2018-02-17T09:37:34.449Z,1.16
2018-02-17T09:38:34.390Z,1.18
2018-02-17T09:39:34.468Z,1.20
2018-02-17T09:40:34.387Z,1.23
2018-02-17T09:41:34.469Z,1.26
2018-02-17T09:42:34.392Z,1.27
2018-02-17T09:43:34.483Z,1.30
2018-02-17T09:44:34.393Z,1.35
2018-02-17T09:45:34.533Z,1.38
2018-02-17T09:46:34.392Z,1.39
2018-02-17T09:47:34.514Z,1.44
2018-02-17T09:48:34.423Z,1.48
2018-02-17T09:49:34.426Z,1.53
2018-02-17T09:50:34.401Z,1.55
2018-02-17T09:51:34.426Z,1.59
2018-02-17T09:52:34.404Z,1.62
2018-02-17T09:53:34.446Z,1.63
2018-02-17T09:54:34.412Z,1.66
2018-02-17T09:55:34.639Z,1.71
2018-02-17T09:56:34.414Z,1.73
2018-02-17T09:57:34.472Z,1.74
2018-02-17T09:58:34.409Z,1.75
2018-02-17T09:59:34.606Z,1.77
2018-02-17T10:00:34.426Z,1.77
2018-02-17T10:01:34.496Z,1.78
2018-02-17T10:02:34.402Z,1.80
2018-02-17T10:03:34.504Z,1.81
2018-02-17T10:04:34.407Z,1.81
2018-02-17T10:05:35.459Z,1.81
2018-02-17T10:06:34.418Z,1.84
2018-02-17T10:07:34.432Z,1.87
2018-02-17T10:08:34.417Z,1.91
2018-02-17T10:09:34.451Z,1.92
2018-02-17T10:10:34.417Z,1.93
2018-02-17T10:11:34.457Z,1.95
2018-02-17T10:12:34.423Z,1.99
2018-02-17T10:13:34.472Z,1.99
2018-02-17T10:14:34.423Z,2.01
2018-02-17T10:15:34.487Z,2.00
2018-02-17T10:16:34.417Z,2.03
2018-02-17T10:17:34.493Z,2.03
2018-02-17T10:18:34.472Z,2.03
2018-02-17T10:19:34.505Z,2.03
2018-02-17T10:20:34.430Z,2.01
2018-02-17T10:21:34.519Z,2.01
2018-02-17T10:22:34.440Z,2.00
2018-02-17T10:23:34.545Z,1.99
2018-02-17T10:24:34.435Z,1.99
2018-02-17T10:25:34.488Z,1.99
2018-02-17T10:26:34.430Z,1.99
2018-02-17T10:27:34.469Z,1.99
2018-02-17T10:28:34.442Z,1.99
2018-02-17T10:29:36.296Z,1.99
2018-02-17T10:30:35.498Z,1.97
2018-02-17T10:31:34.445Z,1.99
2018-02-17T10:32:34.503Z,2.00
2018-02-17T10:33:34.446Z,2.03
2018-02-17T10:34:34.502Z,2.04
2018-02-17T10:35:34.503Z,2.06
2018-02-17T10:36:34.520Z,2.07
2018-02-17T10:37:34.441Z,2.07
2018-02-17T10:38:34.537Z,2.10
2018-02-17T10:39:34.444Z,2.12
2018-02-17T10:40:34.561Z,2.14
2018-02-17T10:41:34.459Z,2.17
2018-02-17T10:42:34.554Z,2.19
2018-02-17T10:43:34.460Z,2.21
2018-02-17T10:44:34.464Z,2.24
2018-02-17T10:45:34.471Z,2.28
2018-02-17T10:46:34.477Z,2.28
2018-02-17T10:47:34.482Z,2.32
2018-02-17T10:48:34.510Z,2.35
2018-02-17T10:49:34.452Z,2.36
2018-02-17T10:50:34.472Z,2.39
2018-02-17T10:51:34.462Z,2.42
2018-02-17T10:52:34.516Z,2.43
2018-02-17T10:53:34.456Z,2.45
2018-02-17T10:54:34.587Z,2.48
2018-02-17T10:55:34.472Z,2.51
2018-02-17T10:56:34.554Z,2.53
2018-02-17T10:57:34.472Z,2.55
2018-02-17T10:58:34.657Z,2.55
2018-02-17T10:59:34.484Z,2.58
2018-02-17T11:00:34.579Z,2.60
2018-02-17T11:01:34.478Z,2.60
2018-02-17T11:02:34.586Z,2.60
2018-02-17T11:03:34.468Z,2.63
2018-02-17T11:04:34.485Z,2.63
2018-02-17T11:05:34.481Z,2.65
2018-02-17T11:06:34.509Z,2.68
2018-02-17T11:07:34.475Z,2.69
2018-02-17T11:08:34.512Z,2.72
2018-02-17T11:09:34.476Z,2.73
2018-02-17T11:10:34.533Z,2.76
2018-02-17T11:11:34.488Z,2.78
2018-02-17T11:12:34.563Z,2.81
2018-02-17T11:13:34.495Z,2.82
2018-02-17T11:14:35.580Z,2.84
2018-02-17T11:15:34.485Z,2.87
2018-02-17T11:16:34.485Z,2.90
2018-02-17T11:17:34.484Z,2.91
2018-02-17T11:18:34.590Z,2.94
2018-02-17T11:19:34.492Z,2.97
2018-02-17T11:20:34.601Z,2.99
2018-02-17T11:21:34.484Z,3.02
2018-02-17T11:22:34.611Z,3.05
2018-02-17T11:23:34.495Z,3.08
2018-02-17T11:24:34.522Z,3.09
2018-02-17T11:25:34.508Z,3.14
2018-02-17T11:26:34.528Z,3.14
2018-02-17T11:27:34.497Z,3.17
2018-02-17T11:28:34.542Z,3.18
2018-02-17T11:29:34.505Z,3.22
2018-02-17T11:30:34.556Z,3.23
2018-02-17T11:31:34.507Z,3.25
2018-02-17T11:32:34.565Z,3.26
2018-02-17T11:33:34.506Z,3.27
2018-02-17T11:34:35.616Z,3.27
2018-02-17T11:35:34.510Z,3.29
2018-02-17T11:36:34.594Z,3.27
2018-02-17T11:37:34.514Z,3.29
2018-02-17T11:38:34.610Z,3.27
2018-02-17T11:39:34.528Z,3.27
2018-02-17T11:40:34.624Z,3.26
2018-02-17T11:41:34.513Z,3.25
2018-02-17T11:42:34.544Z,3.25
2018-02-17T11:43:34.528Z,3.22
2018-02-17T11:44:34.545Z,3.22
2018-02-17T11:45:34.522Z,3.22
2018-02-17T11:46:34.556Z,3.20
2018-02-17T11:47:34.525Z,3.22
2018-02-17T11:48:34.574Z,3.23
2018-02-17T11:49:34.525Z,3.23
2018-02-17T11:50:34.578Z,3.26
2018-02-17T11:51:34.528Z,3.29
2018-02-17T11:52:34.597Z,3.30
2018-02-17T11:53:34.537Z,3.32
2018-02-17T11:54:34.605Z,3.35
2018-02-17T11:55:34.546Z,3.36
2018-02-17T11:56:34.637Z,3.41
2018-02-17T11:57:34.561Z,3.45
2018-02-17T11:58:35.655Z,3.48
2018-02-17T11:59:34.585Z,3.49
2018-02-17T12:00:34.645Z,3.54
2018-02-17T12:01:34.549Z,3.56
2018-02-17T12:02:34.679Z,3.62
2018-02-17T12:03:34.747Z,3.64
2018-02-17T12:04:34.568Z,3.69
2018-02-17T12:05:34.551Z,3.72
2018-02-17T12:06:35.215Z,3.74
2018-02-17T12:07:34.560Z,3.80
2018-02-17T12:08:34.606Z,3.82
2018-02-17T12:09:34.796Z,3.85
2018-02-17T12:10:34.640Z,3.90
2018-02-17T12:11:34.553Z,3.92
2018-02-17T12:12:34.617Z,3.96
2018-02-17T12:13:34.568Z,4.00
2018-02-17T12:14:34.630Z,4.02
2018-02-17T12:15:34.578Z,4.06
2018-02-17T12:16:34.950Z,4.09
2018-02-17T12:17:34.587Z,4.13
2018-02-17T12:18:34.673Z,4.17
2018-02-17T12:19:34.594Z,4.18
2018-02-17T12:20:34.674Z,4.21
2018-02-17T12:21:34.578Z,4.24
2018-02-17T12:22:34.810Z,4.28
2018-02-17T12:23:34.576Z,4.30
2018-02-17T12:24:35.623Z,4.31
2018-02-17T12:25:34.578Z,4.35
2018-02-17T12:26:34.617Z,4.36
2018-02-17T12:27:34.591Z,4.39
2018-02-17T12:28:34.619Z,4.39
2018-02-17T12:29:34.588Z,4.41
2018-02-17T12:30:34.686Z,4.45
2018-02-17T12:31:34.591Z,4.45
2018-02-17T12:32:34.645Z,4.45
2018-02-17T12:33:34.664Z,4.45
2018-02-17T12:34:34.657Z,4.48
2018-02-17T12:35:34.593Z,4.49
2018-02-17T12:36:34.670Z,4.51
2018-02-17T12:37:34.596Z,4.53
2018-02-17T12:38:34.686Z,4.56
2018-02-17T12:39:34.600Z,4.54
2018-02-17T12:40:34.614Z,4.56
2018-02-17T12:41:34.609Z,4.57
2018-02-17T12:42:34.710Z,4.59
2018-02-17T12:43:34.608Z,4.60
2018-02-17T12:44:34.722Z,4.61
2018-02-17T12:45:34.613Z,4.63
2018-02-17T12:46:34.637Z,4.64
2018-02-17T12:47:34.615Z,4.67
2018-02-17T12:48:34.646Z,4.69
2018-02-17T12:49:34.648Z,4.72
2018-02-17T12:50:34.669Z,4.74
2018-02-17T12:51:34.621Z,4.75
2018-02-17T12:52:34.671Z,4.77
2018-02-17T12:53:34.626Z,4.78
2018-02-17T12:54:34.703Z,4.78
2018-02-17T12:55:34.628Z,4.79
2018-02-17T12:56:34.695Z,4.82
2018-02-17T12:57:34.735Z,4.85
2018-02-17T12:58:34.708Z,4.86
2018-02-17T12:59:34.638Z,4.89
2018-02-17T13:00:35.747Z,4.96